createdAt,value
2018-07-23T00:02:46.016Z,20.90
2018-07-23T00:05:14.513Z,20.90
2018-07-23T00:07:42.996Z,20.90
2018-07-23T00:10:11.621Z,20.90
2018-07-23T00:12:40.436Z,20.90
2018-07-23T00:15:09.352Z,20.90
2018-07-23T00:17:38.016Z,21.00
2018-07-23T00:20:06.564Z,20.90
2018-07-23T00:22:35.097Z,20.90
2018-07-23T00:25:03.781Z,20.90
2018-07-23T00:27:32.289Z,20.80
2018-07-23T00:30:00.841Z,20.80
2018-07-23T00:32:29.349Z,20.80
2018-07-23T00:34:57.840Z,20.80
2018-07-23T00:37:26.349Z,20.80
2018-07-23T00:39:54.845Z,20.70
2018-07-23T00:44:51.564Z,20.70
2018-07-23T00:47:20.064Z,20.70
2018-07-23T00:49:48.560Z,20.70
2018-07-23T00:52:17.081Z,20.70
2018-07-23T00:54:45.572Z,20.70
2018-07-23T00:57:14.356Z,20.60
2018-07-23T00:59:42.844Z,20.70
2018-07-23T01:02:11.340Z,20.60
2018-07-23T01:04:39.877Z,20.70
2018-07-23T01:07:08.400Z,20.60
2018-07-23T01:09:36.872Z,20.70
2018-07-23T01:12:05.397Z,20.70
2018-07-23T01:14:33.884Z,20.60
2018-07-23T01:17:02.401Z,20.60
2018-07-23T01:19:30.889Z,20.60
2018-07-23T01:21:59.393Z,20.60
2018-07-23T01:24:27.888Z,20.60
2018-07-23T01:26:56.400Z,20.60
2018-07-23T01:31:53.072Z,20.60
2018-07-23T01:34:21.572Z,20.60
2018-07-23T01:36:50.057Z,20.60
2018-07-23T01:39:18.561Z,20.60
2018-07-23T01:41:47.039Z,20.60
2018-07-23T01:44:15.541Z,20.60
2018-07-23T01:46:44.032Z,20.60
2018-07-23T01:51:40.780Z,20.60
2018-07-23T01:54:09.282Z,20.60
2018-07-23T01:59:05.948Z,20.60
2018-07-23T02:01:34.451Z,20.60
2018-07-23T02:04:02.936Z,20.60
2018-07-23T02:06:31.450Z,20.60
2018-07-23T02:08:59.945Z,20.60
2018-07-23T02:11:28.464Z,20.60
2018-07-23T02:13:56.961Z,20.60
2018-07-23T02:16:25.468Z,20.60
2018-07-23T02:18:53.972Z,20.60
2018-07-23T02:21:22.432Z,20.60
2018-07-23T02:23:50.919Z,20.60
2018-07-23T02:26:19.386Z,20.60
2018-07-23T02:28:47.888Z,20.60
2018-07-23T02:31:16.464Z,20.50
2018-07-23T02:33:44.937Z,20.60
2018-07-23T02:36:13.473Z,20.50
2018-07-23T02:38:42.161Z,20.40
2018-07-23T02:41:10.692Z,20.40
2018-07-23T02:43:39.160Z,20.40
2018-07-23T02:46:07.679Z,20.40
2018-07-23T02:48:36.149Z,20.40
2018-07-23T02:51:04.689Z,20.40
2018-07-23T02:53:33.229Z,20.40
2018-07-23T02:56:01.788Z,20.40
2018-07-23T02:58:30.292Z,20.40
2018-07-23T03:00:58.805Z,20.30
2018-07-23T03:03:27.268Z,20.30
2018-07-23T03:08:23.912Z,20.30
2018-07-23T03:10:52.400Z,20.30
2018-07-23T03:13:20.864Z,20.30
2018-07-23T03:15:49.356Z,20.30
2018-07-23T03:18:17.828Z,20.30
2018-07-23T03:20:46.392Z,20.30
2018-07-23T03:23:14.869Z,20.30
2018-07-23T03:25:43.712Z,20.20
2018-07-23T03:28:12.208Z,20.20
2018-07-23T03:30:40.722Z,20.10
2018-07-23T03:35:38.014Z,20.10
2018-07-23T03:38:07.276Z,20.10
2018-07-23T03:40:36.081Z,20.10
2018-07-23T03:43:09.262Z,20.10
2018-07-23T03:45:38.161Z,20.10
2018-07-23T03:48:06.898Z,20.10
2018-07-23T03:53:04.281Z,20.10
2018-07-23T03:55:32.969Z,20.10
2018-07-23T03:58:02.130Z,20.10
2018-07-23T04:00:31.388Z,20.10
2018-07-23T04:02:59.960Z,20.10
2018-07-23T04:05:28.475Z,20.10
2018-07-23T04:07:57.001Z,20.10
2018-07-23T04:12:54.557Z,20.10
2018-07-23T04:15:23.209Z,20.10
2018-07-23T04:17:57.189Z,20.10
2018-07-23T04:20:25.823Z,20.10
2018-07-23T04:22:54.413Z,20.10
2018-07-23T04:25:23.013Z,20.10
2018-07-23T04:27:51.618Z,20.10
2018-07-23T04:32:48.444Z,20.10
2018-07-23T04:35:16.909Z,20.10
2018-07-23T04:37:45.507Z,20.10
2018-07-23T04:40:14.016Z,20.10
2018-07-23T04:45:10.736Z,20.10
2018-07-23T04:47:39.304Z,20.10
2018-07-23T04:50:07.888Z,20.10
2018-07-23T04:52:36.458Z,20.10
2018-07-23T04:55:04.948Z,20.10
2018-07-23T04:57:33.452Z,20.10
2018-07-23T05:00:01.931Z,20.10
2018-07-23T05:02:30.428Z,20.10
2018-07-23T05:04:58.886Z,20.10
2018-07-23T05:07:27.376Z,20.10
2018-07-23T05:09:55.848Z,20.20
2018-07-23T05:12:24.348Z,20.20
2018-07-23T05:14:52.828Z,20.30
2018-07-23T05:17:21.340Z,20.30
2018-07-23T05:19:49.827Z,20.40
2018-07-23T05:22:18.328Z,20.40
2018-07-23T05:24:46.857Z,20.40
2018-07-23T05:27:15.380Z,20.40
2018-07-23T05:29:43.848Z,20.40
2018-07-23T05:32:12.845Z,20.50
2018-07-23T05:37:09.784Z,20.50
2018-07-23T05:39:38.300Z,20.50
2018-07-23T05:42:06.827Z,20.60
2018-07-23T05:44:35.336Z,20.60
2018-07-23T05:47:03.869Z,20.70
2018-07-23T05:49:32.408Z,20.70
2018-07-23T05:54:29.108Z,20.80
2018-07-23T05:56:57.583Z,20.80
2018-07-23T05:59:26.089Z,20.90
2018-07-23T06:01:54.564Z,20.90
2018-07-23T06:04:23.072Z,21.00
2018-07-23T06:06:51.599Z,21.00
2018-07-23T06:09:20.102Z,21.10
2018-07-23T06:11:48.665Z,21.10
2018-07-23T06:14:17.195Z,21.10
2018-07-23T06:16:45.666Z,21.20
2018-07-23T06:19:14.148Z,21.20
2018-07-23T06:21:42.624Z,21.30
2018-07-23T06:24:11.152Z,21.40
2018-07-23T06:29:07.788Z,21.50
2018-07-23T06:31:36.296Z,21.60
2018-07-23T06:36:32.984Z,21.80
2018-07-23T06:39:01.469Z,21.80
2018-07-23T06:41:29.972Z,21.90
2018-07-23T06:43:58.456Z,21.90
2018-07-23T06:46:26.945Z,22.00
2018-07-23T06:48:55.428Z,22.10
2018-07-23T06:51:23.898Z,22.20
2018-07-23T06:53:52.372Z,22.30
2018-07-23T06:56:20.844Z,22.20
2018-07-23T06:58:49.364Z,22.30
2018-07-23T07:01:18.285Z,22.40
2018-07-23T07:03:46.792Z,22.40
2018-07-23T07:06:15.322Z,22.30
2018-07-23T07:08:43.816Z,22.40
2018-07-23T07:11:12.315Z,22.40
2018-07-23T07:13:40.814Z,22.50
2018-07-23T07:16:09.303Z,22.50
2018-07-23T07:18:37.819Z,22.50
2018-07-23T07:21:06.766Z,22.60
2018-07-23T07:23:35.236Z,22.70
2018-07-23T07:26:03.752Z,22.70
2018-07-23T07:28:32.317Z,22.80
2018-07-23T07:31:00.812Z,22.90
2018-07-23T07:33:29.276Z,23.10
2018-07-23T07:35:57.821Z,23.20
2018-07-23T07:38:26.311Z,23.30
2018-07-23T07:45:51.144Z,23.70
2018-07-23T07:50:47.801Z,23.90
2018-07-23T07:55:44.420Z,23.80
2018-07-23T07:58:12.876Z,23.80
2018-07-23T08:00:41.379Z,23.90
2018-07-23T08:03:09.836Z,24.00
2018-07-23T08:05:38.320Z,24.10
2018-07-23T08:08:07.893Z,24.20
2018-07-23T08:10:36.388Z,24.30
2018-07-23T08:13:04.900Z,24.40
2018-07-23T08:15:33.384Z,24.50
2018-07-23T08:18:01.896Z,24.60
2018-07-23T08:20:30.387Z,24.70
2018-07-23T08:22:58.856Z,24.70
2018-07-23T08:25:27.373Z,24.80
2018-07-23T08:27:55.902Z,24.80
2018-07-23T08:30:24.400Z,24.80
2018-07-23T08:32:52.872Z,24.90
2018-07-23T08:35:21.440Z,25.00
2018-07-23T08:37:50.033Z,25.10
2018-07-23T08:40:18.560Z,25.20
2018-07-23T08:45:15.224Z,25.40
2018-07-23T08:47:43.688Z,25.50
2018-07-23T08:50:12.200Z,25.70
2018-07-23T08:52:40.666Z,25.80
2018-07-23T08:55:09.152Z,26.10
2018-07-23T08:57:37.628Z,26.30
2018-07-23T09:00:06.354Z,26.60
2018-07-23T09:02:34.899Z,26.90
2018-07-23T09:05:03.376Z,27.00
2018-07-23T09:07:31.860Z,27.20
2018-07-23T09:10:00.317Z,27.30
2018-07-23T09:12:28.812Z,27.40
2018-07-23T09:17:25.441Z,27.60
2018-07-23T09:19:53.908Z,27.80
2018-07-23T09:22:22.430Z,27.80
2018-07-23T09:27:19.088Z,27.80
2018-07-23T09:29:47.556Z,27.90
2018-07-23T09:32:16.049Z,28.00
2018-07-23T09:34:44.516Z,28.10
2018-07-23T09:37:13.022Z,28.20
2018-07-23T09:39:41.476Z,28.30
2018-07-23T09:42:09.965Z,28.30
2018-07-23T09:44:38.432Z,28.40
2018-07-23T09:47:06.964Z,28.60
2018-07-23T09:49:35.429Z,28.70
2018-07-23T09:52:03.930Z,28.70
2018-07-23T09:54:32.396Z,28.70
2018-07-23T09:57:00.901Z,28.70
2018-07-23T09:59:29.376Z,28.70
2018-07-23T10:01:57.864Z,28.80
2018-07-23T10:04:26.324Z,28.90
2018-07-23T10:06:54.851Z,28.70
2018-07-23T10:09:23.312Z,28.40
2018-07-23T10:11:51.811Z,28.10
2018-07-23T10:14:20.348Z,27.80
2018-07-23T10:16:48.816Z,27.80
2018-07-23T10:19:17.316Z,27.90
2018-07-23T10:21:45.787Z,27.90
2018-07-23T10:26:42.415Z,28.20
2018-07-23T10:29:10.900Z,28.40
2018-07-23T10:31:39.381Z,28.60
2018-07-23T10:34:07.892Z,28.70
2018-07-23T10:36:36.361Z,28.70
2018-07-23T10:41:34.585Z,28.70
2018-07-23T10:44:03.117Z,28.70
2018-07-23T10:46:31.584Z,29.00
2018-07-23T10:49:00.100Z,29.20
2018-07-23T10:53:56.741Z,29.60
2018-07-23T10:56:25.228Z,29.60
2018-07-23T10:58:53.732Z,29.70
2018-07-23T11:03:50.356Z,29.60
2018-07-23T11:06:18.853Z,29.40
2018-07-23T11:08:47.332Z,29.30
2018-07-23T11:11:15.809Z,29.30
2018-07-23T11:13:44.276Z,29.30
2018-07-23T11:16:12.745Z,29.50
2018-07-23T11:18:41.236Z,29.90
2018-07-23T11:21:09.705Z,30.40
2018-07-23T11:23:38.220Z,31.00
2018-07-23T11:26:06.707Z,31.50
2018-07-23T11:31:03.340Z,32.40
2018-07-23T11:33:31.836Z,32.20
2018-07-23T11:36:00.300Z,32.50
2018-07-23T11:38:28.776Z,33.00
2018-07-23T11:40:57.244Z,33.20
2018-07-23T11:43:25.717Z,33.70
2018-07-23T11:45:54.248Z,34.00
2018-07-23T11:50:50.924Z,34.20
2018-07-23T11:53:19.404Z,34.40
2018-07-23T11:55:47.861Z,35.00
2018-07-23T11:58:16.376Z,35.40
2018-07-23T12:00:44.888Z,36.10
2018-07-23T12:03:13.379Z,36.50
2018-07-23T12:05:41.864Z,36.60
2018-07-23T12:08:10.320Z,37.00
2018-07-23T12:10:38.796Z,37.50
2018-07-23T12:13:07.440Z,38.30
2018-07-23T12:15:35.916Z,39.40
2018-07-23T12:18:04.681Z,39.60
2018-07-23T12:20:33.179Z,38.80
2018-07-23T12:23:01.654Z,37.90
2018-07-23T12:25:30.135Z,37.10
2018-07-23T12:27:58.591Z,36.20
2018-07-23T12:30:27.071Z,35.50
2018-07-23T12:32:55.564Z,35.10
2018-07-23T12:35:24.057Z,35.70
2018-07-23T12:37:52.513Z,37.20
2018-07-23T12:40:21.007Z,39.60
2018-07-23T12:45:17.660Z,43.30
2018-07-23T12:47:46.225Z,45.20
2018-07-23T12:50:14.717Z,46.30
2018-07-23T12:52:43.239Z,44.90
2018-07-23T12:55:11.696Z,44.10
2018-07-23T12:57:40.185Z,44.00
2018-07-23T13:00:08.745Z,43.30
2018-07-23T13:02:37.221Z,42.30
2018-07-23T13:05:05.725Z,40.80
2018-07-23T13:07:34.237Z,39.50
2018-07-23T13:10:03.117Z,38.20
2018-07-23T13:12:31.597Z,37.20
2018-07-23T13:15:00.329Z,36.50
2018-07-23T13:17:28.801Z,35.70
2018-07-23T13:19:57.392Z,35.00
2018-07-23T13:22:25.924Z,34.30
2018-07-23T13:24:54.437Z,33.60
2018-07-23T13:29:51.070Z,32.70
2018-07-23T13:32:19.566Z,32.60
2018-07-23T13:34:48.048Z,33.20
2018-07-23T13:37:16.520Z,33.10
2018-07-23T13:39:45.008Z,33.00
2018-07-23T13:42:13.472Z,33.60
2018-07-23T13:44:41.957Z,34.00
2018-07-23T13:47:10.411Z,34.40
2018-07-23T13:49:38.876Z,34.90
2018-07-23T13:52:07.368Z,36.20
2018-07-23T13:54:35.837Z,36.60
2018-07-23T13:57:04.444Z,35.80
2018-07-23T13:59:32.900Z,35.90
2018-07-23T14:02:01.400Z,36.90
2018-07-23T14:04:29.871Z,37.80
2018-07-23T14:06:58.399Z,37.50
2018-07-23T14:09:26.852Z,37.10
2018-07-23T14:11:55.344Z,36.60
2018-07-23T14:14:23.801Z,36.10
2018-07-23T14:16:52.300Z,35.30
2018-07-23T14:19:20.768Z,34.60
2018-07-23T14:21:49.264Z,34.30
2018-07-23T14:24:17.732Z,33.90
2018-07-23T14:26:46.219Z,33.70
2018-07-23T14:29:14.677Z,33.40
2018-07-23T14:31:43.196Z,33.20
2018-07-23T14:34:11.652Z,33.10
2018-07-23T14:36:40.304Z,33.00
2018-07-23T14:39:11.392Z,32.90
2018-07-23T14:41:39.905Z,32.80
2018-07-23T14:44:08.480Z,32.80
2018-07-23T14:46:37.322Z,32.60
2018-07-23T14:49:05.948Z,32.50
2018-07-23T14:51:34.449Z,32.40
2018-07-23T14:54:03.156Z,32.30
2018-07-23T14:59:00.204Z,32.10
2018-07-23T15:01:28.692Z,32.00
2018-07-23T15:03:57.176Z,31.90
2018-07-23T15:08:53.801Z,31.60
2018-07-23T15:11:22.294Z,31.50
2018-07-23T15:13:50.748Z,31.60
2018-07-23T15:16:19.220Z,31.80
2018-07-23T15:18:47.684Z,32.00
2018-07-23T15:21:16.200Z,32.30
2018-07-23T15:23:44.785Z,32.50
2018-07-23T15:26:13.320Z,32.80
2018-07-23T15:31:09.904Z,33.00
2018-07-23T15:33:38.385Z,33.10
2018-07-23T15:36:06.861Z,33.20
2018-07-23T15:38:35.409Z,33.20
2018-07-23T15:41:03.826Z,33.10
2018-07-23T15:43:32.329Z,33.00
2018-07-23T15:46:00.941Z,32.80
2018-07-23T15:48:29.352Z,32.60
2018-07-23T15:53:25.968Z,32.20
2018-07-23T15:55:54.439Z,32.00
2018-07-23T15:58:22.919Z,31.90
2018-07-23T16:00:51.376Z,31.70
2018-07-23T16:03:19.871Z,31.60
2018-07-23T16:05:48.336Z,31.50
2018-07-23T16:08:16.864Z,31.40
2018-07-23T16:10:45.335Z,31.30
2018-07-23T16:13:13.835Z,31.20
2018-07-23T16:15:42.296Z,31.20
2018-07-23T16:18:10.808Z,31.30
2018-07-23T16:20:39.284Z,31.30
2018-07-23T16:23:07.863Z,31.40
2018-07-23T16:25:36.331Z,31.50
2018-07-23T16:28:04.867Z,31.60
2018-07-23T16:30:33.331Z,31.70
2018-07-23T16:35:29.987Z,31.80
2018-07-23T16:40:26.660Z,31.90
2018-07-23T16:42:55.136Z,31.90
2018-07-23T16:45:23.615Z,31.90
2018-07-23T16:47:52.099Z,31.90
2018-07-23T16:50:20.555Z,31.80
2018-07-23T16:52:49.027Z,31.70
2018-07-23T16:55:17.480Z,31.70
2018-07-23T16:57:45.963Z,31.60
2018-07-23T17:00:15.066Z,31.60
2018-07-23T17:02:43.533Z,31.40
2018-07-23T17:05:12.016Z,31.40
2018-07-23T17:07:40.472Z,31.40
2018-07-23T17:10:08.983Z,31.40
2018-07-23T17:12:37.459Z,31.30
2018-07-23T17:15:06.168Z,31.30
2018-07-23T17:17:34.656Z,31.30
2018-07-23T17:20:03.232Z,31.20
2018-07-23T17:24:59.864Z,31.00
2018-07-23T17:27:28.332Z,30.90
2018-07-23T17:29:56.823Z,30.80
2018-07-23T17:32:25.288Z,30.50
2018-07-23T17:34:53.771Z,30.30
2018-07-23T17:37:22.248Z,30.20
2018-07-23T17:39:50.720Z,30.10
2018-07-23T17:42:19.180Z,30.10
2018-07-23T17:44:47.714Z,30.00
2018-07-23T17:47:17.019Z,30.00
2018-07-23T17:49:45.503Z,29.90
2018-07-23T17:52:13.971Z,29.80
2018-07-23T17:54:42.484Z,29.80
2018-07-23T17:57:10.947Z,29.70
2018-07-23T17:59:39.469Z,29.60
2018-07-23T18:02:08.175Z,29.50
2018-07-23T18:07:05.179Z,29.50
2018-07-23T18:09:33.675Z,29.40
2018-07-23T18:12:02.141Z,29.40
2018-07-23T18:14:30.628Z,29.40
2018-07-23T18:16:59.088Z,29.30
2018-07-23T18:19:27.573Z,29.20
2018-07-23T18:21:56.027Z,29.10
2018-07-23T18:26:52.648Z,29.00
2018-07-23T18:29:21.107Z,28.90
2018-07-23T18:31:49.596Z,28.90
2018-07-23T18:34:18.048Z,28.80
2018-07-23T18:36:46.548Z,28.70
2018-07-23T18:39:15.012Z,28.70
2018-07-23T18:41:43.487Z,28.60
2018-07-23T18:44:11.941Z,28.50
2018-07-23T18:46:40.423Z,28.50
2018-07-23T18:49:28.290Z,28.40
2018-07-23T18:51:57.067Z,28.40
2018-07-23T18:59:26.088Z,28.20
2018-07-23T19:04:23.484Z,28.10
2018-07-23T19:06:51.995Z,28.10
2018-07-23T19:09:21.751Z,28.00
2018-07-23T19:11:51.499Z,27.90
2018-07-23T19:14:20.252Z,27.90
2018-07-23T19:16:49.678Z,27.80
2018-07-23T19:19:18.167Z,27.70
2018-07-23T19:21:46.652Z,27.70
2018-07-23T19:24:15.136Z,27.60
2018-07-23T19:26:43.640Z,27.60
2018-07-23T19:29:12.156Z,27.50
2018-07-23T19:31:40.695Z,27.50
2018-07-23T19:34:09.155Z,27.40
2018-07-23T19:36:37.707Z,27.30
2018-07-23T19:39:08.467Z,27.20
2018-07-23T19:41:37.388Z,27.10
2018-07-23T19:44:06.380Z,27.00
2018-07-23T19:46:34.876Z,27.00
2018-07-23T19:49:03.395Z,27.00
2018-07-23T19:51:31.895Z,26.90
2018-07-23T19:56:28.643Z,26.80
2018-07-23T20:01:25.279Z,26.70
2018-07-23T20:03:53.816Z,26.60
2018-07-23T20:06:23.511Z,26.50
2018-07-23T20:08:53.091Z,26.40
2018-07-23T20:11:22.570Z,26.40
2018-07-23T20:13:51.188Z,26.30
2018-07-23T20:18:47.976Z,26.10
2018-07-23T20:21:16.560Z,26.00
2018-07-23T20:23:45.343Z,26.00
2018-07-23T20:26:14.072Z,25.90
2018-07-23T20:28:42.616Z,25.80
2018-07-23T20:31:11.119Z,25.80
2018-07-23T20:33:39.619Z,25.70
2018-07-23T20:36:08.192Z,25.70
2018-07-23T20:38:36.948Z,25.60
2018-07-23T20:41:05.512Z,25.60
2018-07-23T20:43:34.216Z,25.50
2018-07-23T20:48:31.300Z,25.40
2018-07-23T20:50:59.835Z,25.40
2018-07-23T20:53:28.356Z,25.30
2018-07-23T20:55:56.828Z,25.20
2018-07-23T20:58:25.328Z,25.20
2018-07-23T21:00:53.824Z,25.10
2018-07-23T21:03:22.343Z,25.00
2018-07-23T21:05:50.800Z,24.90
2018-07-23T21:08:19.273Z,24.90
2018-07-23T21:10:47.772Z,24.80
2018-07-23T21:13:16.264Z,24.70
2018-07-23T21:15:44.788Z,24.70
2018-07-23T21:18:13.271Z,24.60
2018-07-23T21:20:41.752Z,24.60
2018-07-23T21:23:10.276Z,24.50
2018-07-23T21:25:38.779Z,24.40
2018-07-23T21:28:07.344Z,24.40
2018-07-23T21:30:35.871Z,24.30
2018-07-23T21:33:04.393Z,24.30
2018-07-23T21:35:32.913Z,24.30
2018-07-23T21:38:01.384Z,24.30
2018-07-23T21:40:29.882Z,24.20
2018-07-23T21:42:58.344Z,24.10
2018-07-23T21:45:26.848Z,24.00
2018-07-23T21:47:55.324Z,23.90
2018-07-23T21:50:23.863Z,23.90
2018-07-23T21:52:52.339Z,23.80
2018-07-23T21:55:20.859Z,23.70
2018-07-23T21:57:49.346Z,23.70
2018-07-23T22:00:17.934Z,23.60
2018-07-23T22:02:46.447Z,23.60
2018-07-23T22:05:14.916Z,23.60
2018-07-23T22:10:11.576Z,23.50
2018-07-23T22:15:10.277Z,23.40
2018-07-23T22:17:38.896Z,23.30
2018-07-23T22:20:08.205Z,23.30
2018-07-23T22:22:36.708Z,23.20
2018-07-23T22:25:05.640Z,23.20
2018-07-23T22:30:02.305Z,23.10
2018-07-23T22:32:30.768Z,23.00
2018-07-23T22:34:59.261Z,22.90
2018-07-23T22:37:27.760Z,22.90
2018-07-23T22:39:56.263Z,22.90
2018-07-23T22:42:25.668Z,22.80
2018-07-23T22:44:54.156Z,22.80
2018-07-23T22:47:22.627Z,22.70
2018-07-23T22:49:51.187Z,22.70
2018-07-23T22:52:19.668Z,22.60
2018-07-23T22:54:48.129Z,22.60
2018-07-23T23:02:12.928Z,22.50
2018-07-23T23:04:41.392Z,22.40
2018-07-23T23:07:09.912Z,22.40
2018-07-23T23:12:06.580Z,22.30
2018-07-23T23:14:35.040Z,22.30
2018-07-23T23:17:03.525Z,22.20
2018-07-23T23:19:31.988Z,22.10
2018-07-23T23:22:00.500Z,22.10
2018-07-23T23:24:28.975Z,22.10
2018-07-23T23:26:57.471Z,22.10
2018-07-23T23:31:54.095Z,22.00
2018-07-23T23:34:22.564Z,22.00
2018-07-23T23:36:51.060Z,21.90
2018-07-23T23:39:19.532Z,21.90
2018-07-23T23:41:48.020Z,21.90
2018-07-23T23:44:16.487Z,21.80
2018-07-23T23:46:44.995Z,21.80
2018-07-23T23:51:41.652Z,21.80
2018-07-23T23:56:38.323Z,21.70
2018-07-23T23:59:06.819Z,21.60
